createdAt,value
2022-09-01T00:00:48.942Z,2.03
2022-09-01T00:03:19.651Z,1.92
2022-09-01T00:05:46.217Z,2.05
2022-09-01T00:08:13.323Z,1.95
2022-09-01T00:10:44.781Z,1.73
2022-09-01T00:13:11.086Z,1.48
2022-09-01T00:15:37.508Z,1.88
2022-09-01T00:18:04.019Z,2.17
2022-09-01T00:20:30.662Z,2.15
2022-09-01T00:22:57.142Z,2.40
2022-09-01T00:25:24.691Z,1.92
2022-09-01T00:27:51.127Z,2.17
2022-09-01T00:30:21.672Z,2.45
2022-09-01T00:32:48.080Z,2.08
2022-09-01T00:35:16.319Z,2.08
2022-09-01T00:37:42.918Z,2.30
2022-09-01T00:40:11.650Z,2.83
2022-09-01T00:42:39.755Z,2.50
2022-09-01T00:45:07.371Z,2.13
2022-09-01T00:47:35.995Z,2.25
2022-09-01T00:50:03.907Z,2.35
2022-09-01T00:52:38.952Z,2.17
2022-09-01T00:55:11.505Z,2.33
2022-09-01T01:00:11.071Z,2.22
2022-09-01T01:02:38.994Z,2.60
2022-09-01T01:05:06.085Z,2.20
2022-09-01T01:07:38.788Z,2.45
2022-09-01T01:10:07.013Z,2.42
2022-09-01T01:12:35.787Z,2.72
2022-09-01T01:15:02.674Z,2.65
2022-09-01T01:17:29.636Z,2.30
2022-09-01T01:20:15.679Z,2.55
2022-09-01T01:23:03.085Z,2.50
2022-09-01T01:25:34.534Z,2.08
2022-09-01T01:28:05.331Z,2.20
2022-09-01T01:30:33.748Z,2.42
2022-09-01T01:33:01.751Z,2.25
2022-09-01T01:35:31.775Z,2.72
2022-09-01T01:37:58.269Z,3.85
2022-09-01T01:40:24.730Z,2.65
2022-09-01T01:42:52.515Z,2.20
2022-09-01T01:45:20.805Z,2.40
2022-09-01T01:47:52.991Z,2.67
2022-09-01T01:50:21.549Z,2.30
2022-09-01T01:52:48.223Z,3.15
2022-09-01T01:55:19.912Z,2.50
2022-09-01T01:57:50.001Z,2.90
2022-09-01T02:00:19.434Z,2.60
2022-09-01T02:02:57.119Z,2.38
2022-09-01T02:05:25.344Z,2.17
2022-09-01T02:07:59.804Z,2.55
2022-09-01T02:10:30.778Z,2.30
2022-09-01T02:13:03.879Z,2.45
2022-09-01T02:15:35.006Z,2.50
2022-09-01T02:18:03.283Z,2.60
2022-09-01T02:20:32.810Z,2.95
2022-09-01T02:23:10.440Z,2.17
2022-09-01T02:26:05.067Z,2.45
2022-09-01T02:28:31.963Z,2.58
2022-09-01T02:31:02.492Z,2.38
2022-09-01T02:33:30.688Z,2.58
2022-09-01T02:35:58.916Z,2.35
2022-09-01T02:38:29.630Z,2.28
2022-09-01T02:40:58.239Z,2.63
2022-09-01T02:43:28.115Z,2.58
2022-09-01T02:45:57.474Z,2.70
2022-09-01T02:48:26.475Z,2.60
2022-09-01T02:50:53.759Z,2.90
2022-09-01T02:53:20.535Z,2.25
2022-09-01T02:55:46.911Z,2.42
2022-09-01T02:58:16.270Z,2.80
2022-09-01T03:00:43.262Z,2.35
2022-09-01T03:03:12.579Z,2.40
2022-09-01T03:05:40.934Z,2.20
2022-09-01T03:08:10.735Z,2.88
2022-09-01T03:10:41.473Z,2.90
2022-09-01T03:13:12.495Z,2.90
2022-09-01T03:15:39.360Z,2.10
2022-09-01T03:18:07.034Z,2.20
2022-09-01T03:20:35.048Z,2.38
2022-09-01T03:23:04.854Z,2.10
2022-09-01T03:25:32.236Z,2.35
2022-09-01T03:28:03.035Z,2.65
2022-09-01T03:30:30.447Z,2.10
2022-09-01T03:32:57.714Z,2.05
2022-09-01T03:35:25.164Z,2.60
2022-09-01T03:37:52.475Z,2.28
2022-09-01T03:40:19.119Z,2.40
2022-09-01T03:42:45.530Z,2.85
2022-09-01T03:45:15.842Z,2.20
2022-09-01T03:47:43.264Z,2.35
2022-09-01T03:50:21.867Z,2.35
2022-09-01T03:52:50.742Z,2.30
2022-09-01T03:55:23.267Z,2.40
2022-09-01T03:57:51.017Z,2.92
2022-09-01T04:00:22.983Z,2.55
2022-09-01T04:02:50.804Z,2.58
2022-09-01T04:05:28.404Z,2.30
2022-09-01T04:07:57.378Z,2.40
2022-09-01T04:10:24.175Z,2.70
2022-09-01T04:12:50.928Z,2.50
2022-09-01T04:15:17.803Z,2.55
2022-09-01T04:18:05.544Z,2.47
2022-09-01T04:20:39.791Z,2.60
2022-09-01T04:23:10.879Z,3.03
2022-09-01T04:25:38.986Z,2.30
2022-09-01T04:28:12.921Z,2.28
2022-09-01T04:30:40.773Z,2.42
2022-09-01T04:33:13.034Z,2.40
2022-09-01T04:35:40.123Z,2.83
2022-09-01T04:38:08.316Z,2.28
2022-09-01T04:40:41.514Z,3.17
2022-09-01T04:43:08.832Z,2.60
2022-09-01T04:45:36.544Z,2.65
2022-09-01T04:48:04.056Z,2.58
2022-09-01T04:50:32.702Z,2.42
2022-09-01T04:53:19.544Z,2.45
2022-09-01T04:55:49.937Z,2.60
2022-09-01T04:58:18.516Z,2.00
2022-09-01T05:00:48.139Z,2.45
2022-09-01T05:03:21.345Z,3.00
2022-09-01T05:06:14.623Z,2.70
2022-09-01T05:08:46.538Z,2.80
2022-09-01T05:11:23.942Z,2.30
2022-09-01T05:13:57.657Z,3.08
2022-09-01T05:16:25.791Z,2.40
2022-09-01T05:18:56.888Z,2.65
2022-09-01T05:21:26.528Z,2.50
2022-09-01T05:23:54.143Z,2.88
2022-09-01T05:26:22.576Z,2.30
2022-09-01T05:28:55.585Z,2.60
2022-09-01T05:31:23.365Z,2.08
2022-09-01T05:33:50.757Z,2.17
2022-09-01T05:36:19.288Z,2.53
2022-09-01T05:38:47.470Z,2.13
2022-09-01T05:41:17.986Z,2.17
2022-09-01T05:43:55.171Z,2.50
2022-09-01T05:46:26.321Z,2.20
2022-09-01T05:48:53.648Z,2.47
2022-09-01T05:51:43.301Z,2.00
2022-09-01T05:54:11.978Z,2.03
2022-09-01T05:56:43.572Z,2.15
2022-09-01T05:59:27.447Z,3.72
2022-09-01T06:02:00.795Z,2.00
2022-09-01T06:04:27.776Z,2.22
2022-09-01T06:07:08.533Z,2.13
2022-09-01T06:09:39.799Z,2.10
2022-09-01T06:12:06.993Z,1.90
2022-09-01T06:14:33.989Z,2.72
2022-09-01T06:17:00.808Z,1.90
2022-09-01T06:19:27.196Z,2.42
2022-09-01T06:21:53.535Z,2.20
2022-09-01T06:24:20.043Z,2.28
2022-09-01T06:26:46.961Z,2.22
2022-09-01T06:29:15.408Z,2.30
2022-09-01T06:31:51.536Z,2.00
2022-09-01T06:34:19.538Z,2.08
2022-09-01T06:36:48.362Z,1.90
2022-09-01T06:39:19.764Z,2.60
2022-09-01T06:41:52.602Z,2.17
2022-09-01T06:44:24.528Z,2.40
2022-09-01T06:46:59.979Z,2.13
2022-09-01T06:49:32.360Z,2.10
2022-09-01T06:51:59.872Z,2.40
2022-09-01T06:54:27.500Z,1.77
2022-09-01T06:56:53.965Z,2.00
2022-09-01T06:59:21.683Z,2.10
2022-09-01T07:01:52.645Z,1.88
2022-09-01T07:04:26.706Z,1.55
2022-09-01T07:06:59.221Z,2.78
2022-09-01T07:10:17.659Z,1.70
2022-09-01T07:13:08.335Z,1.95
2022-09-01T07:18:32.343Z,2.00
2022-09-01T07:21:07.653Z,1.63
2022-09-01T07:24:07.841Z,1.50
2022-09-01T07:26:35.870Z,1.50
2022-09-01T07:29:04.236Z,1.80
2022-09-01T07:34:42.167Z,1.70
2022-09-01T07:38:47.344Z,1.63
2022-09-01T07:43:20.542Z,1.58
2022-09-01T07:49:29.662Z,1.40
2022-09-01T07:51:51.665Z,1.67
2022-09-01T07:54:19.339Z,1.40
2022-09-01T07:56:47.191Z,1.60
2022-09-01T07:59:15.510Z,1.40
2022-09-01T08:02:08.414Z,1.50
2022-09-01T08:04:34.785Z,1.27
2022-09-01T08:07:03.038Z,1.58
2022-09-01T08:09:37.645Z,1.80
2022-09-01T08:12:07.541Z,1.40
2022-09-01T08:14:38.091Z,1.58
2022-09-01T08:19:53.387Z,1.73
2022-09-01T08:22:32.473Z,1.40
2022-09-01T08:25:05.942Z,1.77
2022-09-01T08:27:33.304Z,1.40
2022-09-01T08:30:00.233Z,1.75
2022-09-01T08:32:27.645Z,1.40
2022-09-01T08:34:54.231Z,1.55
2022-09-01T08:37:21.435Z,2.13
2022-09-01T08:39:49.378Z,1.23
2022-09-01T08:42:24.173Z,1.10
2022-09-01T08:45:02.657Z,1.30
2022-09-01T08:47:43.601Z,1.33
2022-09-01T08:50:17.243Z,1.50
2022-09-01T08:53:10.416Z,1.30
2022-09-01T08:55:41.675Z,1.35
2022-09-01T08:58:10.292Z,1.25
2022-09-01T09:01:01.503Z,1.20
2022-09-01T09:03:42.139Z,1.40
2022-09-01T09:06:08.882Z,1.25
2022-09-01T09:08:53.848Z,1.00
2022-09-01T09:11:40.770Z,1.00
2022-09-01T09:14:07.381Z,1.40
2022-09-01T09:16:41.056Z,1.23
2022-09-01T09:19:22.094Z,0.90
2022-09-01T09:21:49.459Z,1.55
2022-09-01T09:24:21.536Z,0.93
2022-09-01T09:26:50.101Z,1.20
2022-09-01T09:29:16.758Z,1.35
2022-09-01T09:31:45.884Z,1.10
2022-09-01T09:34:29.174Z,0.93
2022-09-01T09:36:57.372Z,1.00
2022-09-01T09:39:23.843Z,0.88
2022-09-01T09:42:02.413Z,0.90
2022-09-01T09:44:30.538Z,1.05
2022-09-01T09:46:57.702Z,1.33
2022-09-01T09:49:36.405Z,1.02
2022-09-01T09:52:09.859Z,1.23
2022-09-01T09:54:37.485Z,1.02
2022-09-01T09:57:09.489Z,1.10
2022-09-01T09:59:57.764Z,1.25
2022-09-01T10:02:31.990Z,0.80
2022-09-01T10:04:59.649Z,1.00
2022-09-01T10:07:28.554Z,1.23
2022-09-01T10:09:55.919Z,0.98
2022-09-01T10:12:24.438Z,1.05
2022-09-01T10:14:53.692Z,0.73
2022-09-01T10:17:26.307Z,1.20
2022-09-01T10:19:55.794Z,1.05
2022-09-01T10:22:23.159Z,1.05
2022-09-01T10:24:50.497Z,0.90
2022-09-01T10:27:22.882Z,1.08
2022-09-01T10:32:34.633Z,1.00
2022-09-01T10:35:04.555Z,0.90
2022-09-01T10:37:31.819Z,1.00
2022-09-01T10:40:20.529Z,1.10
2022-09-01T10:42:55.206Z,0.90
2022-09-01T10:45:42.806Z,1.30
2022-09-01T10:48:30.477Z,0.93
2022-09-01T10:51:19.010Z,1.05
2022-09-01T10:53:48.363Z,0.85
2022-09-01T10:56:23.360Z,1.05
2022-09-01T11:01:53.172Z,1.20
2022-09-01T11:04:22.726Z,1.00
2022-09-01T11:09:41.359Z,1.23
2022-09-01T11:12:13.800Z,1.27
2022-09-01T11:14:53.534Z,0.98
2022-09-01T11:17:25.709Z,0.80
2022-09-01T11:20:09.920Z,1.05
2022-09-01T11:22:41.475Z,0.95
2022-09-01T11:25:11.051Z,1.00
2022-09-01T11:27:47.787Z,0.60
2022-09-01T11:30:18.904Z,0.80
2022-09-01T11:32:47.292Z,1.00
2022-09-01T11:35:21.635Z,0.95
2022-09-01T11:37:51.907Z,1.30
2022-09-01T11:40:32.459Z,1.17
2022-09-01T11:43:01.827Z,0.90
2022-09-01T11:45:32.792Z,1.13
2022-09-01T11:48:02.383Z,0.98
2022-09-01T11:50:33.021Z,1.50
2022-09-01T11:53:05.009Z,0.77
2022-09-01T11:55:35.803Z,0.93
2022-09-01T11:58:02.573Z,0.88
2022-09-01T12:00:31.453Z,0.70
2022-09-01T12:02:58.008Z,0.82
2022-09-01T12:05:32.011Z,0.77
2022-09-01T12:07:58.938Z,1.13
2022-09-01T12:10:30.722Z,0.80
2022-09-01T12:13:10.938Z,0.95
2022-09-01T12:16:00.423Z,0.85
2022-09-01T12:18:43.567Z,0.98
2022-09-01T12:21:16.616Z,0.77
2022-09-01T12:23:44.054Z,0.77
2022-09-01T12:26:12.153Z,0.80
2022-09-01T12:28:41.199Z,0.88
2022-09-01T12:31:15.337Z,1.00
2022-09-01T12:33:45.295Z,1.08
2022-09-01T12:36:16.575Z,0.90
2022-09-01T12:38:42.882Z,0.90
2022-09-01T12:41:25.960Z,1.17
2022-09-01T12:43:54.766Z,0.98
2022-09-01T12:46:40.291Z,1.10
2022-09-01T12:49:16.636Z,0.70
2022-09-01T12:51:43.840Z,0.90
2022-09-01T12:54:11.043Z,0.88
2022-09-01T12:56:38.946Z,1.00
2022-09-01T12:59:26.262Z,1.00
2022-09-01T13:02:22.480Z,1.00
2022-09-01T13:04:49.109Z,1.00
2022-09-01T13:07:15.448Z,1.35
2022-09-01T13:09:41.763Z,1.02
2022-09-01T13:12:12.325Z,1.50
2022-09-01T13:14:38.693Z,1.10
2022-09-01T13:17:05.918Z,0.95
2022-09-01T13:19:40.499Z,1.05
2022-09-01T13:22:07.291Z,1.00
2022-09-01T13:24:34.647Z,1.10
2022-09-01T13:29:47.606Z,0.90
2022-09-01T13:32:18.525Z,1.40
2022-09-01T13:34:46.718Z,1.13
2022-09-01T13:37:13.047Z,0.98
2022-09-01T13:39:39.340Z,0.95
2022-09-01T13:42:05.923Z,0.85
2022-09-01T13:44:33.122Z,1.00
2022-09-01T13:46:59.759Z,1.08
2022-09-01T13:49:44.557Z,1.50
2022-09-01T13:52:13.379Z,1.15
2022-09-01T13:54:39.975Z,1.10
2022-09-01T13:57:06.296Z,1.10
2022-09-01T13:59:33.124Z,1.10
2022-09-01T14:02:00.886Z,1.08
2022-09-01T14:04:27.295Z,1.23
2022-09-01T14:06:54.931Z,1.23
2022-09-01T14:09:21.306Z,1.30
2022-09-01T14:11:47.633Z,1.15
2022-09-01T14:14:14.203Z,1.02
2022-09-01T14:16:40.558Z,1.17
2022-09-01T14:19:06.903Z,1.13
2022-09-01T14:21:33.372Z,1.38
2022-09-01T14:24:00.135Z,1.00
2022-09-01T14:26:27.327Z,1.20
2022-09-01T14:28:54.951Z,1.00
2022-09-01T14:31:21.531Z,1.30
2022-09-01T14:33:49.033Z,1.27
2022-09-01T14:36:20.219Z,0.80
2022-09-01T14:38:46.544Z,0.90
2022-09-01T14:41:13.490Z,1.08
2022-09-01T14:43:42.844Z,1.10
2022-09-01T14:46:10.766Z,1.63
2022-09-01T14:48:37.738Z,1.10
2022-09-01T14:51:04.336Z,0.82
2022-09-01T14:53:31.184Z,1.10
2022-09-01T14:55:58.398Z,1.02
2022-09-01T14:58:26.339Z,1.25
2022-09-01T15:01:00.367Z,1.33
2022-09-01T15:03:34.347Z,1.40
2022-09-01T15:06:00.668Z,0.90
2022-09-01T15:08:26.978Z,1.05
2022-09-01T15:10:53.298Z,1.45
2022-09-01T15:13:19.614Z,1.05
2022-09-01T15:15:45.940Z,1.38
2022-09-01T15:18:12.531Z,1.08
2022-09-01T15:20:45.733Z,1.10
2022-09-01T15:23:19.591Z,1.40
2022-09-01T15:25:46.138Z,0.90
2022-09-01T15:28:12.932Z,1.38
2022-09-01T15:30:39.834Z,1.30
2022-09-01T15:33:09.006Z,0.90
2022-09-01T15:35:37.216Z,1.17
2022-09-01T15:38:04.515Z,1.15
2022-09-01T15:40:31.378Z,1.00
2022-09-01T15:42:57.862Z,1.20
2022-09-01T15:45:24.562Z,0.90
2022-09-01T15:47:51.048Z,1.25
2022-09-01T15:50:21.710Z,1.52
2022-09-01T15:52:53.012Z,0.70
2022-09-01T15:55:25.659Z,1.20
2022-09-01T15:57:54.857Z,1.48
2022-09-01T16:00:22.748Z,1.15
2022-09-01T16:02:49.235Z,1.02
2022-09-01T16:05:17.707Z,1.00
2022-09-01T16:07:44.186Z,1.20
2022-09-01T16:10:11.908Z,0.95
2022-09-01T16:12:39.855Z,1.00
2022-09-01T16:15:06.574Z,1.00
2022-09-01T16:17:51.139Z,1.38
2022-09-01T16:20:20.258Z,0.98
2022-09-01T16:22:51.622Z,1.10
2022-09-01T16:25:23.498Z,1.30
2022-09-01T16:27:50.053Z,1.17
2022-09-01T16:30:22.262Z,1.13
2022-09-01T16:32:49.235Z,1.02
2022-09-01T16:35:18.966Z,1.20
2022-09-01T16:37:52.441Z,1.40
2022-09-01T16:40:21.910Z,0.80
2022-09-01T16:42:57.933Z,0.90
2022-09-01T16:45:42.285Z,1.00
2022-09-01T16:48:19.474Z,1.13
2022-09-01T16:50:55.492Z,1.33
2022-09-01T16:53:30.352Z,1.20
2022-09-01T16:56:13.855Z,0.90
2022-09-01T16:59:03.553Z,1.20
2022-09-01T17:01:41.602Z,1.27
2022-09-01T17:04:18.988Z,1.27
2022-09-01T17:07:05.836Z,1.30
2022-09-01T17:09:38.881Z,1.23
2022-09-01T17:12:23.098Z,1.30
2022-09-01T17:14:54.082Z,1.10
2022-09-01T17:17:24.610Z,1.58
2022-09-01T17:19:54.203Z,1.23
2022-09-01T17:22:21.443Z,1.20
2022-09-01T17:24:57.389Z,1.05
2022-09-01T17:27:32.658Z,1.02
2022-09-01T17:30:01.255Z,1.10
2022-09-01T17:32:41.326Z,1.20
2022-09-01T17:35:35.864Z,1.55
2022-09-01T17:38:04.527Z,1.50
2022-09-01T17:40:50.005Z,1.63
2022-09-01T17:43:25.968Z,1.50
2022-09-01T17:46:10.327Z,1.40
2022-09-01T17:48:39.976Z,1.10
2022-09-01T17:51:14.219Z,1.10
2022-09-01T17:53:49.438Z,1.40
2022-09-01T17:56:24.090Z,1.38
2022-09-01T17:58:58.416Z,1.05
2022-09-01T18:01:31.580Z,1.10
2022-09-01T18:04:12.042Z,1.50
2022-09-01T18:06:38.881Z,1.30
2022-09-01T18:09:06.083Z,1.30
2022-09-01T18:11:50.387Z,1.40
2022-09-01T18:14:21.672Z,1.10
2022-09-01T18:16:58.386Z,1.33
2022-09-01T18:19:26.842Z,1.20
2022-09-01T18:21:55.743Z,1.40
2022-09-01T18:24:26.252Z,1.55
2022-09-01T18:26:52.967Z,1.98
2022-09-01T18:29:19.910Z,1.70
2022-09-01T18:31:59.793Z,1.40
2022-09-01T18:34:40.660Z,1.50
2022-09-01T18:37:24.421Z,1.40
2022-09-01T18:39:53.503Z,1.60
2022-09-01T18:42:22.661Z,1.48
2022-09-01T18:45:18.111Z,1.70
2022-09-01T18:48:00.155Z,1.48
2022-09-01T18:50:30.012Z,1.98
2022-09-01T18:53:17.548Z,1.80
2022-09-01T18:56:02.739Z,2.70
2022-09-01T18:58:52.731Z,1.88
2022-09-01T19:01:42.224Z,1.75
2022-09-01T19:04:10.362Z,1.63
2022-09-01T19:06:51.993Z,1.50
2022-09-01T19:09:28.602Z,1.73
2022-09-01T19:12:00.810Z,1.60
2022-09-01T19:14:46.068Z,1.60
2022-09-01T19:17:18.449Z,1.42
2022-09-01T19:20:03.588Z,1.25
2022-09-01T19:22:49.219Z,1.42
2022-09-01T19:25:36.444Z,1.65
2022-09-01T19:28:07.045Z,1.40
2022-09-01T19:30:35.461Z,1.45
2022-09-01T19:33:03.810Z,1.40
2022-09-01T19:35:32.612Z,1.77
2022-09-01T19:38:05.322Z,2.05
2022-09-01T19:43:04.204Z,1.33
2022-09-01T19:45:37.041Z,1.50
2022-09-01T19:48:10.049Z,1.10
2022-09-01T19:50:44.250Z,1.30
2022-09-01T19:53:33.529Z,1.50
2022-09-01T19:56:05.509Z,1.50
2022-09-01T19:58:54.905Z,1.35
2022-09-01T20:01:26.659Z,1.45
2022-09-01T20:03:55.358Z,1.50
2022-09-01T20:06:33.297Z,1.20
2022-09-01T20:09:18.223Z,1.75
2022-09-01T20:12:04.298Z,1.27
2022-09-01T20:14:54.963Z,1.10
2022-09-01T20:17:37.170Z,1.38
2022-09-01T20:20:08.284Z,1.30
2022-09-01T20:22:40.277Z,1.25
2022-09-01T20:25:14.310Z,1.15
2022-09-01T20:28:06.762Z,1.40
2022-09-01T20:30:39.889Z,1.35
2022-09-01T20:33:18.329Z,1.33
2022-09-01T20:35:50.015Z,1.20
2022-09-01T20:38:43.949Z,1.05
2022-09-01T20:41:40.154Z,1.30
2022-09-01T20:44:09.317Z,1.58
2022-09-01T20:46:35.698Z,1.15
2022-09-01T20:49:02.857Z,1.38
2022-09-01T20:51:39.369Z,1.08
2022-09-01T20:54:13.283Z,1.50
2022-09-01T20:56:45.789Z,1.50
2022-09-01T20:59:12.166Z,1.35
2022-09-01T21:01:48.579Z,1.10
2022-09-01T21:04:30.097Z,1.20
2022-09-01T21:07:15.018Z,1.13
2022-09-01T21:09:59.875Z,1.15
2022-09-01T21:12:26.499Z,1.20
2022-09-01T21:15:06.723Z,1.20
2022-09-01T21:17:42.169Z,1.05
2022-09-01T21:20:14.284Z,1.23
2022-09-01T21:22:40.686Z,1.50
2022-09-01T21:25:07.082Z,1.40
2022-09-01T21:27:38.486Z,1.27
2022-09-01T21:30:06.618Z,1.00
2022-09-01T21:32:33.817Z,1.45
2022-09-01T21:35:00.802Z,1.20
2022-09-01T21:37:28.076Z,1.13
2022-09-01T21:39:55.088Z,1.60
2022-09-01T21:42:23.824Z,1.15
2022-09-01T21:44:50.477Z,1.15
2022-09-01T21:47:21.452Z,1.33
2022-09-01T21:49:47.863Z,1.05
2022-09-01T21:52:14.184Z,1.38
2022-09-01T21:54:40.533Z,0.95
2022-09-01T21:57:06.913Z,1.27
2022-09-01T21:59:33.234Z,1.10
2022-09-01T22:02:00.847Z,0.98
2022-09-01T22:04:27.531Z,0.98
2022-09-01T22:06:53.884Z,1.17
2022-09-01T22:09:21.754Z,1.00
2022-09-01T22:11:48.609Z,1.15
2022-09-01T22:14:15.111Z,1.30
2022-09-01T22:16:42.458Z,1.05
2022-09-01T22:19:08.798Z,1.00
2022-09-01T22:21:35.499Z,1.30
2022-09-01T22:24:01.874Z,1.15
2022-09-01T22:26:31.747Z,0.95
2022-09-01T22:28:59.178Z,1.10
2022-09-01T22:31:26.321Z,1.23
2022-09-01T22:33:52.911Z,1.33
2022-09-01T22:36:20.544Z,0.98
2022-09-01T22:38:46.868Z,1.17
2022-09-01T22:41:16.474Z,1.10
2022-09-01T22:43:42.868Z,0.90
2022-09-01T22:46:09.728Z,1.15
2022-09-01T22:48:36.319Z,1.00
2022-09-01T22:51:08.223Z,1.00
2022-09-01T22:53:34.994Z,1.45
2022-09-01T22:56:01.842Z,1.00
2022-09-01T22:58:28.283Z,1.20
2022-09-01T23:00:56.167Z,1.50
2022-09-01T23:03:22.970Z,1.25
2022-09-01T23:05:49.879Z,1.00
2022-09-01T23:08:16.754Z,1.05
2022-09-01T23:10:43.336Z,0.90
2022-09-01T23:13:09.921Z,1.00
2022-09-01T23:15:36.367Z,1.40
2022-09-01T23:18:02.692Z,1.15
2022-09-01T23:20:30.034Z,0.80
2022-09-01T23:22:56.341Z,1.00
2022-09-01T23:25:24.192Z,1.05
2022-09-01T23:27:50.516Z,1.10
2022-09-01T23:30:16.859Z,1.00
2022-09-01T23:32:43.293Z,1.00
2022-09-01T23:35:09.915Z,0.82
2022-09-01T23:37:36.368Z,0.95
2022-09-01T23:40:03.623Z,1.75
2022-09-01T23:42:30.033Z,0.90
2022-09-01T23:44:56.410Z,1.00
2022-09-01T23:47:22.715Z,1.20
2022-09-01T23:49:49.205Z,1.10
2022-09-01T23:52:16.037Z,0.95
2022-09-01T23:54:42.348Z,1.13
2022-09-01T23:57:08.957Z,0.93
2022-09-01T23:59:35.274Z,1.13
